createdAt,value
2022-08-31T00:06:06.420Z,16.89
2022-08-31T00:16:12.294Z,16.66
2022-08-31T00:26:15.347Z,16.29
2022-08-31T00:36:22.162Z,15.98
2022-08-31T00:46:27.566Z,15.71
2022-08-31T00:56:32.112Z,15.52
2022-08-31T01:06:35.196Z,15.29
2022-08-31T01:16:44.915Z,15.12
2022-08-31T01:26:53.753Z,15.04
2022-08-31T01:36:58.852Z,14.92
2022-08-31T01:47:03.261Z,14.67
2022-08-31T01:57:06.447Z,14.51
2022-08-31T02:07:10.505Z,14.29
2022-08-31T02:17:13.211Z,14.18
2022-08-31T02:27:17.247Z,14.11
2022-08-31T02:37:20.934Z,14.03
2022-08-31T02:47:27.238Z,13.93
2022-08-31T02:57:29.953Z,13.90
2022-08-31T03:07:34.104Z,13.84
2022-08-31T03:17:37.610Z,13.83
2022-08-31T03:27:41.740Z,13.77
2022-08-31T03:37:44.952Z,13.66
2022-08-31T03:47:49.483Z,13.49
2022-08-31T03:57:52.281Z,13.46
2022-08-31T04:07:56.838Z,13.40
2022-08-31T04:17:59.564Z,13.27
2022-08-31T04:28:04.175Z,13.16
2022-08-31T04:38:06.905Z,12.99
2022-08-31T04:48:11.016Z,12.94
2022-08-31T04:58:13.990Z,13.04
2022-08-31T05:08:18.160Z,13.08
2022-08-31T05:18:20.882Z,13.19
2022-08-31T05:28:25.008Z,13.34
2022-08-31T05:38:27.709Z,13.62
2022-08-31T05:48:33.567Z,13.89
2022-08-31T05:58:36.666Z,14.19
2022-08-31T06:08:41.347Z,14.49
2022-08-31T06:18:50.621Z,14.87
2022-08-31T06:28:56.563Z,15.24
2022-08-31T06:39:00.697Z,15.55
2022-08-31T06:49:05.592Z,15.91
2022-08-31T06:59:12.100Z,16.32
2022-08-31T07:09:18.101Z,16.66
2022-08-31T07:19:22.153Z,17.02
2022-08-31T07:29:30.105Z,17.38
2022-08-31T07:39:51.892Z,17.78
2022-08-31T07:49:58.554Z,18.08
2022-08-31T08:00:08.021Z,18.38
2022-08-31T08:10:13.983Z,18.66
2022-08-31T08:20:16.757Z,19.13
2022-08-31T08:30:35.048Z,19.38
2022-08-31T08:40:43.757Z,19.77
2022-08-31T08:50:47.955Z,19.87
2022-08-31T09:00:52.942Z,20.29
2022-08-31T09:11:07.089Z,20.53
2022-08-31T09:21:20.768Z,20.83
2022-08-31T09:31:37.151Z,21.04
2022-08-31T09:41:40.172Z,21.03
2022-08-31T09:51:44.281Z,20.75
2022-08-31T10:01:47.615Z,21.31
2022-08-31T10:11:57.519Z,21.84
2022-08-31T10:22:05.327Z,21.96
2022-08-31T10:32:24.815Z,22.25
2022-08-31T10:42:30.708Z,22.39
2022-08-31T10:52:42.974Z,22.41
2022-08-31T11:02:55.365Z,22.47
2022-08-31T11:13:06.761Z,22.91
2022-08-31T11:23:28.553Z,23.71
2022-08-31T11:33:32.872Z,34.15
2022-08-31T11:43:51.970Z,39.12
2022-08-31T11:53:56.212Z,41.35
2022-08-31T12:04:03.497Z,41.43
2022-08-31T12:14:18.919Z,42.39
2022-08-31T12:24:34.542Z,41.46
2022-08-31T12:34:47.277Z,41.87
2022-08-31T12:44:52.936Z,41.92
2022-08-31T12:55:24.735Z,32.40
2022-08-31T13:05:30.078Z,28.55
2022-08-31T13:15:39.873Z,27.37
2022-08-31T13:25:48.426Z,26.86
2022-08-31T13:35:57.778Z,26.50
2022-08-31T13:46:01.071Z,25.99
2022-08-31T13:56:39.238Z,25.88
2022-08-31T14:06:44.083Z,25.79
2022-08-31T14:16:52.007Z,25.56
2022-08-31T14:26:55.146Z,25.27
2022-08-31T14:37:02.367Z,25.42
2022-08-31T14:47:05.772Z,25.00
2022-08-31T14:57:14.946Z,25.04
2022-08-31T15:07:18.396Z,24.72
2022-08-31T15:17:24.547Z,24.63
2022-08-31T15:27:29.157Z,24.28
2022-08-31T15:37:33.532Z,24.00
2022-08-31T15:47:57.441Z,23.85
2022-08-31T15:58:04.341Z,23.47
2022-08-31T16:08:10.842Z,23.17
2022-08-31T16:18:15.396Z,22.90
2022-08-31T16:28:19.907Z,22.71
2022-08-31T16:38:24.431Z,22.51
2022-08-31T16:48:44.685Z,22.37
2022-08-31T16:58:52.471Z,22.02
2022-08-31T17:08:56.270Z,21.77
2022-08-31T17:19:00.515Z,21.57
2022-08-31T17:29:06.318Z,21.25
2022-08-31T17:39:11.220Z,21.06
2022-08-31T17:49:15.104Z,20.79
2022-08-31T17:59:22.265Z,20.60
2022-08-31T18:09:29.491Z,20.28
2022-08-31T18:19:34.433Z,20.00
2022-08-31T18:29:39.372Z,19.83
2022-08-31T18:40:04.259Z,19.32
2022-08-31T18:50:09.915Z,18.95
2022-08-31T19:00:16.338Z,18.57
2022-08-31T19:10:19.050Z,18.30
2022-08-31T19:20:23.118Z,18.04
2022-08-31T19:30:28.235Z,17.84
2022-08-31T19:40:38.916Z,17.65
2022-08-31T19:50:42.462Z,17.49
2022-08-31T20:00:47.341Z,17.38
2022-08-31T20:10:51.152Z,17.30
2022-08-31T20:20:56.671Z,17.19
2022-08-31T20:31:06.233Z,16.99
2022-08-31T20:41:10.414Z,16.87
2022-08-31T20:51:16.326Z,16.90
2022-08-31T21:01:21.752Z,16.87
2022-08-31T21:11:24.987Z,16.82
2022-08-31T21:21:30.761Z,16.85
2022-08-31T21:31:33.560Z,16.79
2022-08-31T21:41:38.616Z,16.80
2022-08-31T21:51:46.453Z,16.72
2022-08-31T22:01:59.038Z,16.72
2022-08-31T22:12:06.219Z,16.66
2022-08-31T22:22:13.113Z,16.51
2022-08-31T22:32:16.481Z,16.36
2022-08-31T22:42:20.528Z,16.28
2022-08-31T22:52:23.248Z,16.15
2022-08-31T23:02:30.573Z,15.99
2022-08-31T23:12:33.298Z,15.86
2022-08-31T23:22:37.364Z,15.71
2022-08-31T23:32:41.259Z,15.49
2022-08-31T23:42:45.360Z,15.32
2022-08-31T23:52:48.643Z,15.13
